sensor_id;sensor_type;location;lat;lon;timestamp;P1;durP1;ratioP1;P2;durP2;ratioP2
19131;SDS011;9698;51.976;7.570;2023-06-26T00:00:39;7.13;;;6.43;;
19131;SDS011;9698;51.976;7.570;2023-06-26T00:03:07;7.50;;;6.80;;
19131;SDS011;9698;51.976;7.570;2023-06-26T00:05:36;7.40;;;6.70;;
19131;SDS011;9698;51.976;7.570;2023-06-26T00:08:04;7.37;;;6.70;;
19131;SDS011;9698;51.976;7.570;2023-06-26T00:10:32;8.10;;;6.97;;
19131;SDS011;9698;51.976;7.570;2023-06-26T00:13:01;7.17;;;6.57;;
19131;SDS011;9698;51.976;7.570;2023-06-26T00:15:29;7.83;;;7.03;;
19131;SDS011;9698;51.976;7.570;2023-06-26T00:17:58;7.17;;;6.50;;
19131;SDS011;9698;51.976;7.570;2023-06-26T00:20:26;7.50;;;6.80;;
19131;SDS011;9698;51.976;7.570;2023-06-26T00:22:53;8.10;;;7.40;;
19131;SDS011;9698;51.976;7.570;2023-06-26T00:25:24;8.60;;;7.73;;
19131;SDS011;9698;51.976;7.570;2023-06-26T00:27:53;7.73;;;7.00;;
19131;SDS011;9698;51.976;7.570;2023-06-26T00:30:21;7.40;;;6.70;;
19131;SDS011;9698;51.976;7.570;2023-06-26T00:32:49;7.87;;;7.10;;
19131;SDS011;9698;51.976;7.570;2023-06-26T00:35:17;7.73;;;6.93;;
19131;SDS011;9698;51.976;7.570;2023-06-26T00:37:45;7.50;;;6.80;;
19131;SDS011;9698;51.976;7.570;2023-06-26T00:40:13;7.47;;;6.77;;
19131;SDS011;9698;51.976;7.570;2023-06-26T00:42:42;7.17;;;6.57;;
19131;SDS011;9698;51.976;7.570;2023-06-26T00:45:10;7.83;;;7.03;;
19131;SDS011;9698;51.976;7.570;2023-06-26T00:47:38;8.03;;;7.20;;
19131;SDS011;9698;51.976;7.570;2023-06-26T00:50:07;7.90;;;7.10;;
19131;SDS011;9698;51.976;7.570;2023-06-26T00:52:35;8.47;;;7.70;;
19131;SDS011;9698;51.976;7.570;2023-06-26T00:55:03;7.60;;;6.87;;
19131;SDS011;9698;51.976;7.570;2023-06-26T00:57:32;7.80;;;7.00;;
19131;SDS011;9698;51.976;7.570;2023-06-26T01:00:01;7.40;;;6.70;;
19131;SDS011;9698;51.976;7.570;2023-06-26T01:02:30;7.87;;;7.17;;
19131;SDS011;9698;51.976;7.570;2023-06-26T01:04:59;9.27;;;7.10;;
19131;SDS011;9698;51.976;7.570;2023-06-26T01:07:32;7.37;;;6.67;;
19131;SDS011;9698;51.976;7.570;2023-06-26T01:10:03;8.40;;;6.80;;
19131;SDS011;9698;51.976;7.570;2023-06-26T01:12:32;7.70;;;6.90;;
19131;SDS011;9698;51.976;7.570;2023-06-26T01:15:01;8.17;;;7.37;;
19131;SDS011;9698;51.976;7.570;2023-06-26T01:17:30;7.77;;;7.00;;
19131;SDS011;9698;51.976;7.570;2023-06-26T01:19:59;7.77;;;7.07;;
19131;SDS011;9698;51.976;7.570;2023-06-26T01:22:34;8.27;;;7.47;;
19131;SDS011;9698;51.976;7.570;2023-06-26T01:25:13;8.30;;;7.50;;
19131;SDS011;9698;51.976;7.570;2023-06-26T01:27:48;7.60;;;6.80;;
19131;SDS011;9698;51.976;7.570;2023-06-26T01:30:17;7.93;;;7.03;;
19131;SDS011;9698;51.976;7.570;2023-06-26T01:32:45;7.83;;;7.13;;
19131;SDS011;9698;51.976;7.570;2023-06-26T01:35:15;8.13;;;7.33;;
19131;SDS011;9698;51.976;7.570;2023-06-26T01:37:43;8.17;;;7.37;;
19131;SDS011;9698;51.976;7.570;2023-06-26T01:40:11;7.50;;;6.70;;
19131;SDS011;9698;51.976;7.570;2023-06-26T01:42:39;7.40;;;6.70;;
19131;SDS011;9698;51.976;7.570;2023-06-26T01:45:09;7.53;;;6.80;;
19131;SDS011;9698;51.976;7.570;2023-06-26T01:47:40;6.80;;;6.10;;
19131;SDS011;9698;51.976;7.570;2023-06-26T01:50:12;7.63;;;6.40;;
19131;SDS011;9698;51.976;7.570;2023-06-26T01:52:45;7.80;;;7.07;;
19131;SDS011;9698;51.976;7.570;2023-06-26T01:55:22;7.47;;;6.77;;
19131;SDS011;9698;51.976;7.570;2023-06-26T01:57:59;8.10;;;7.13;;
19131;SDS011;9698;51.976;7.570;2023-06-26T02:00:27;8.00;;;7.07;;
19131;SDS011;9698;51.976;7.570;2023-06-26T02:02:57;7.63;;;6.83;;
19131;SDS011;9698;51.976;7.570;2023-06-26T02:08:13;9.27;;;7.33;;
19131;SDS011;9698;51.976;7.570;2023-06-26T02:10:42;7.80;;;6.87;;
19131;SDS011;9698;51.976;7.570;2023-06-26T02:13:10;10.43;;;6.90;;
19131;SDS011;9698;51.976;7.570;2023-06-26T02:15:38;7.97;;;7.17;;
19131;SDS011;9698;51.976;7.570;2023-06-26T02:18:06;8.17;;;7.30;;
19131;SDS011;9698;51.976;7.570;2023-06-26T02:20:34;8.13;;;6.97;;
19131;SDS011;9698;51.976;7.570;2023-06-26T02:23:02;8.20;;;7.37;;
19131;SDS011;9698;51.976;7.570;2023-06-26T02:25:30;8.03;;;7.23;;
19131;SDS011;9698;51.976;7.570;2023-06-26T02:27:58;8.00;;;7.17;;
19131;SDS011;9698;51.976;7.570;2023-06-26T02:30:26;8.70;;;6.83;;
19131;SDS011;9698;51.976;7.570;2023-06-26T02:32:54;8.90;;;7.30;;
19131;SDS011;9698;51.976;7.570;2023-06-26T02:35:22;8.17;;;7.43;;
19131;SDS011;9698;51.976;7.570;2023-06-26T02:37:50;7.97;;;7.17;;
19131;SDS011;9698;51.976;7.570;2023-06-26T02:40:18;9.20;;;7.53;;
19131;SDS011;9698;51.976;7.570;2023-06-26T02:42:45;8.50;;;7.70;;
19131;SDS011;9698;51.976;7.570;2023-06-26T02:45:13;8.10;;;7.30;;
19131;SDS011;9698;51.976;7.570;2023-06-26T02:47:41;9.10;;;7.40;;
19131;SDS011;9698;51.976;7.570;2023-06-26T02:50:09;8.43;;;7.60;;
19131;SDS011;9698;51.976;7.570;2023-06-26T02:52:37;8.63;;;7.73;;
19131;SDS011;9698;51.976;7.570;2023-06-26T02:55:06;9.73;;;7.50;;
19131;SDS011;9698;51.976;7.570;2023-06-26T02:57:34;8.67;;;7.83;;
19131;SDS011;9698;51.976;7.570;2023-06-26T03:00:02;8.47;;;7.67;;
19131;SDS011;9698;51.976;7.570;2023-06-26T03:02:34;9.47;;;7.13;;
19131;SDS011;9698;51.976;7.570;2023-06-26T03:05:02;8.73;;;7.60;;
19131;SDS011;9698;51.976;7.570;2023-06-26T03:07:31;8.20;;;7.40;;
19131;SDS011;9698;51.976;7.570;2023-06-26T03:09:59;9.37;;;8.47;;
19131;SDS011;9698;51.976;7.570;2023-06-26T03:12:27;9.57;;;7.73;;
19131;SDS011;9698;51.976;7.570;2023-06-26T03:14:54;9.20;;;8.30;;
19131;SDS011;9698;51.976;7.570;2023-06-26T03:17:22;8.67;;;7.70;;
19131;SDS011;9698;51.976;7.570;2023-06-26T03:19:50;9.07;;;7.90;;
19131;SDS011;9698;51.976;7.570;2023-06-26T03:22:18;8.70;;;7.83;;
19131;SDS011;9698;51.976;7.570;2023-06-26T03:24:46;8.63;;;7.80;;
19131;SDS011;9698;51.976;7.570;2023-06-26T03:27:13;8.20;;;7.17;;
19131;SDS011;9698;51.976;7.570;2023-06-26T03:29:45;9.53;;;7.83;;
19131;SDS011;9698;51.976;7.570;2023-06-26T03:32:12;8.33;;;7.40;;
19131;SDS011;9698;51.976;7.570;2023-06-26T03:34:40;11.43;;;8.17;;
19131;SDS011;9698;51.976;7.570;2023-06-26T03:37:08;7.93;;;7.13;;
19131;SDS011;9698;51.976;7.570;2023-06-26T03:39:36;9.80;;;7.80;;
19131;SDS011;9698;51.976;7.570;2023-06-26T03:42:05;8.23;;;7.40;;
19131;SDS011;9698;51.976;7.570;2023-06-26T03:44:34;9.20;;;7.17;;
19131;SDS011;9698;51.976;7.570;2023-06-26T03:47:02;10.17;;;7.77;;
19131;SDS011;9698;51.976;7.570;2023-06-26T03:49:30;7.83;;;7.03;;
19131;SDS011;9698;51.976;7.570;2023-06-26T03:51:58;8.73;;;7.90;;
19131;SDS011;9698;51.976;7.570;2023-06-26T03:54:26;10.10;;;8.00;;
19131;SDS011;9698;51.976;7.570;2023-06-26T03:56:54;11.27;;;7.27;;
19131;SDS011;9698;51.976;7.570;2023-06-26T03:59:22;7.80;;;7.00;;
19131;SDS011;9698;51.976;7.570;2023-06-26T04:01:49;9.00;;;7.43;;
19131;SDS011;9698;51.976;7.570;2023-06-26T04:04:19;8.67;;;7.30;;
19131;SDS011;9698;51.976;7.570;2023-06-26T04:06:47;11.00;;;7.47;;
19131;SDS011;9698;51.976;7.570;2023-06-26T04:09:15;8.47;;;7.43;;
19131;SDS011;9698;51.976;7.570;2023-06-26T04:11:43;9.77;;;7.83;;
19131;SDS011;9698;51.976;7.570;2023-06-26T04:14:11;8.17;;;7.37;;
19131;SDS011;9698;51.976;7.570;2023-06-26T04:16:39;9.43;;;7.27;;
19131;SDS011;9698;51.976;7.570;2023-06-26T04:19:07;9.10;;;7.13;;
19131;SDS011;9698;51.976;7.570;2023-06-26T04:21:36;8.43;;;7.23;;
19131;SDS011;9698;51.976;7.570;2023-06-26T04:24:05;9.50;;;7.17;;
19131;SDS011;9698;51.976;7.570;2023-06-26T04:26:33;8.33;;;7.43;;
19131;SDS011;9698;51.976;7.570;2023-06-26T04:29:01;8.00;;;7.27;;
19131;SDS011;9698;51.976;7.570;2023-06-26T04:31:29;10.83;;;7.60;;
19131;SDS011;9698;51.976;7.570;2023-06-26T04:33:57;9.53;;;7.57;;
19131;SDS011;9698;51.976;7.570;2023-06-26T04:36:26;10.30;;;7.87;;
19131;SDS011;9698;51.976;7.570;2023-06-26T04:38:54;8.97;;;7.60;;
19131;SDS011;9698;51.976;7.570;2023-06-26T04:41:22;9.10;;;7.77;;
19131;SDS011;9698;51.976;7.570;2023-06-26T04:43:50;9.30;;;8.30;;
19131;SDS011;9698;51.976;7.570;2023-06-26T04:46:18;8.70;;;7.63;;
19131;SDS011;9698;51.976;7.570;2023-06-26T04:48:45;8.77;;;7.87;;
19131;SDS011;9698;51.976;7.570;2023-06-26T04:51:13;9.67;;;8.33;;
19131;SDS011;9698;51.976;7.570;2023-06-26T04:53:41;9.57;;;8.57;;
19131;SDS011;9698;51.976;7.570;2023-06-26T04:56:09;10.03;;;8.67;;
19131;SDS011;9698;51.976;7.570;2023-06-26T04:58:37;12.60;;;8.90;;
19131;SDS011;9698;51.976;7.570;2023-06-26T05:01:05;11.53;;;8.90;;
19131;SDS011;9698;51.976;7.570;2023-06-26T05:03:34;12.67;;;8.90;;
19131;SDS011;9698;51.976;7.570;2023-06-26T05:06:03;12.37;;;9.80;;
19131;SDS011;9698;51.976;7.570;2023-06-26T05:08:35;12.63;;;9.43;;
19131;SDS011;9698;51.976;7.570;2023-06-26T05:11:03;10.63;;;8.97;;
19131;SDS011;9698;51.976;7.570;2023-06-26T05:13:31;11.93;;;8.87;;
19131;SDS011;9698;51.976;7.570;2023-06-26T05:15:59;12.50;;;9.73;;
19131;SDS011;9698;51.976;7.570;2023-06-26T05:18:27;11.97;;;9.90;;
19131;SDS011;9698;51.976;7.570;2023-06-26T05:20:56;9.90;;;8.90;;
19131;SDS011;9698;51.976;7.570;2023-06-26T05:23:24;10.17;;;9.13;;
19131;SDS011;9698;51.976;7.570;2023-06-26T05:25:54;13.63;;;9.57;;
19131;SDS011;9698;51.976;7.570;2023-06-26T05:28:24;9.83;;;8.83;;
19131;SDS011;9698;51.976;7.570;2023-06-26T05:30:54;12.70;;;9.10;;
19131;SDS011;9698;51.976;7.570;2023-06-26T05:33:24;11.70;;;9.00;;
19131;SDS011;9698;51.976;7.570;2023-06-26T05:35:53;10.93;;;9.20;;
19131;SDS011;9698;51.976;7.570;2023-06-26T05:38:24;11.50;;;8.57;;
19131;SDS011;9698;51.976;7.570;2023-06-26T05:40:54;10.73;;;9.63;;
19131;SDS011;9698;51.976;7.570;2023-06-26T05:43:23;13.03;;;9.63;;
19131;SDS011;9698;51.976;7.570;2023-06-26T05:45:55;10.37;;;9.23;;
19131;SDS011;9698;51.976;7.570;2023-06-26T05:48:24;10.90;;;9.10;;
19131;SDS011;9698;51.976;7.570;2023-06-26T05:50:52;11.00;;;9.13;;
19131;SDS011;9698;51.976;7.570;2023-06-26T05:53:22;14.57;;;9.67;;
19131;SDS011;9698;51.976;7.570;2023-06-26T05:55:51;10.33;;;8.87;;
19131;SDS011;9698;51.976;7.570;2023-06-26T05:58:20;10.47;;;8.90;;
19131;SDS011;9698;51.976;7.570;2023-06-26T06:00:50;10.00;;;9.00;;
19131;SDS011;9698;51.976;7.570;2023-06-26T06:03:18;10.33;;;9.10;;
19131;SDS011;9698;51.976;7.570;2023-06-26T06:05:46;11.57;;;8.20;;
19131;SDS011;9698;51.976;7.570;2023-06-26T06:08:14;10.07;;;8.03;;
19131;SDS011;9698;51.976;7.570;2023-06-26T06:10:41;11.17;;;8.43;;
19131;SDS011;9698;51.976;7.570;2023-06-26T06:13:09;9.80;;;8.33;;
19131;SDS011;9698;51.976;7.570;2023-06-26T06:15:37;9.97;;;8.40;;
19131;SDS011;9698;51.976;7.570;2023-06-26T06:18:05;8.50;;;7.50;;
19131;SDS011;9698;51.976;7.570;2023-06-26T06:20:33;11.10;;;7.70;;
19131;SDS011;9698;51.976;7.570;2023-06-26T06:23:02;9.43;;;6.83;;
19131;SDS011;9698;51.976;7.570;2023-06-26T06:25:29;8.63;;;6.60;;
19131;SDS011;9698;51.976;7.570;2023-06-26T06:27:57;10.47;;;7.07;;
19131;SDS011;9698;51.976;7.570;2023-06-26T06:30:25;11.27;;;7.03;;
19131;SDS011;9698;51.976;7.570;2023-06-26T06:33:10;11.87;;;6.77;;
19131;SDS011;9698;51.976;7.570;2023-06-26T06:35:38;8.27;;;6.77;;
19131;SDS011;9698;51.976;7.570;2023-06-26T06:38:06;11.50;;;6.80;;
19131;SDS011;9698;51.976;7.570;2023-06-26T06:40:34;9.27;;;5.97;;
19131;SDS011;9698;51.976;7.570;2023-06-26T06:43:03;9.97;;;6.67;;
19131;SDS011;9698;51.976;7.570;2023-06-26T06:45:30;9.97;;;6.10;;
19131;SDS011;9698;51.976;7.570;2023-06-26T06:47:58;8.83;;;5.90;;
19131;SDS011;9698;51.976;7.570;2023-06-26T06:50:26;9.47;;;5.90;;
19131;SDS011;9698;51.976;7.570;2023-06-26T06:52:54;10.00;;;6.00;;
19131;SDS011;9698;51.976;7.570;2023-06-26T06:55:22;8.83;;;6.37;;
19131;SDS011;9698;51.976;7.570;2023-06-26T06:57:52;7.53;;;6.00;;
19131;SDS011;9698;51.976;7.570;2023-06-26T07:00:19;7.97;;;5.53;;
19131;SDS011;9698;51.976;7.570;2023-06-26T07:02:47;10.13;;;6.27;;
19131;SDS011;9698;51.976;7.570;2023-06-26T07:05:15;7.43;;;6.07;;
19131;SDS011;9698;51.976;7.570;2023-06-26T07:07:43;12.17;;;6.00;;
19131;SDS011;9698;51.976;7.570;2023-06-26T07:10:12;9.50;;;6.30;;
19131;SDS011;9698;51.976;7.570;2023-06-26T07:12:40;8.40;;;5.80;;
19131;SDS011;9698;51.976;7.570;2023-06-26T07:15:10;7.57;;;5.90;;
19131;SDS011;9698;51.976;7.570;2023-06-26T07:17:38;9.73;;;5.90;;
19131;SDS011;9698;51.976;7.570;2023-06-26T07:20:06;8.07;;;6.03;;
19131;SDS011;9698;51.976;7.570;2023-06-26T07:22:36;10.47;;;6.43;;
19131;SDS011;9698;51.976;7.570;2023-06-26T07:25:05;10.43;;;6.60;;
19131;SDS011;9698;51.976;7.570;2023-06-26T07:27:35;9.43;;;5.83;;
19131;SDS011;9698;51.976;7.570;2023-06-26T07:30:03;11.67;;;5.90;;
19131;SDS011;9698;51.976;7.570;2023-06-26T07:32:32;11.77;;;6.70;;
19131;SDS011;9698;51.976;7.570;2023-06-26T07:35:00;12.60;;;6.03;;
19131;SDS011;9698;51.976;7.570;2023-06-26T07:37:28;11.37;;;6.40;;
19131;SDS011;9698;51.976;7.570;2023-06-26T07:39:56;10.77;;;6.47;;
19131;SDS011;9698;51.976;7.570;2023-06-26T07:42:24;11.77;;;6.33;;
19131;SDS011;9698;51.976;7.570;2023-06-26T07:44:52;10.27;;;5.93;;
19131;SDS011;9698;51.976;7.570;2023-06-26T07:47:20;12.53;;;6.77;;
19131;SDS011;9698;51.976;7.570;2023-06-26T07:49:48;10.07;;;5.70;;
19131;SDS011;9698;51.976;7.570;2023-06-26T07:52:16;12.03;;;7.20;;
19131;SDS011;9698;51.976;7.570;2023-06-26T07:54:44;9.27;;;6.33;;
19131;SDS011;9698;51.976;7.570;2023-06-26T07:57:12;11.30;;;6.93;;
19131;SDS011;9698;51.976;7.570;2023-06-26T07:59:40;12.67;;;5.73;;
19131;SDS011;9698;51.976;7.570;2023-06-26T08:02:08;11.03;;;6.27;;
19131;SDS011;9698;51.976;7.570;2023-06-26T08:04:36;11.07;;;6.40;;
19131;SDS011;9698;51.976;7.570;2023-06-26T08:07:05;13.20;;;5.83;;
19131;SDS011;9698;51.976;7.570;2023-06-26T08:09:33;12.17;;;6.00;;
19131;SDS011;9698;51.976;7.570;2023-06-26T08:12:01;11.80;;;5.90;;
19131;SDS011;9698;51.976;7.570;2023-06-26T08:14:29;12.03;;;5.63;;
19131;SDS011;9698;51.976;7.570;2023-06-26T08:16:57;13.03;;;6.30;;
19131;SDS011;9698;51.976;7.570;2023-06-26T08:19:26;11.57;;;5.97;;
19131;SDS011;9698;51.976;7.570;2023-06-26T08:21:54;11.80;;;5.70;;
19131;SDS011;9698;51.976;7.570;2023-06-26T08:24:22;11.13;;;6.27;;
19131;SDS011;9698;51.976;7.570;2023-06-26T08:26:50;12.17;;;6.40;;
19131;SDS011;9698;51.976;7.570;2023-06-26T08:29:18;11.13;;;5.87;;
19131;SDS011;9698;51.976;7.570;2023-06-26T08:31:45;9.50;;;5.60;;
19131;SDS011;9698;51.976;7.570;2023-06-26T08:34:13;12.73;;;5.83;;
19131;SDS011;9698;51.976;7.570;2023-06-26T08:36:41;13.80;;;6.13;;
19131;SDS011;9698;51.976;7.570;2023-06-26T08:39:11;9.70;;;5.60;;
19131;SDS011;9698;51.976;7.570;2023-06-26T08:41:38;8.27;;;5.67;;
19131;SDS011;9698;51.976;7.570;2023-06-26T08:44:06;9.53;;;5.87;;
19131;SDS011;9698;51.976;7.570;2023-06-26T08:46:34;8.87;;;5.57;;
19131;SDS011;9698;51.976;7.570;2023-06-26T08:49:04;11.33;;;5.90;;
19131;SDS011;9698;51.976;7.570;2023-06-26T08:51:41;10.87;;;5.50;;
19131;SDS011;9698;51.976;7.570;2023-06-26T08:54:14;10.03;;;5.50;;
19131;SDS011;9698;51.976;7.570;2023-06-26T08:56:44;8.80;;;5.30;;
19131;SDS011;9698;51.976;7.570;2023-06-26T08:59:15;11.07;;;5.57;;
19131;SDS011;9698;51.976;7.570;2023-06-26T09:01:44;9.13;;;5.20;;
19131;SDS011;9698;51.976;7.570;2023-06-26T09:04:14;9.47;;;4.87;;
19131;SDS011;9698;51.976;7.570;2023-06-26T09:06:42;10.03;;;5.43;;
19131;SDS011;9698;51.976;7.570;2023-06-26T09:09:11;7.17;;;5.03;;
19131;SDS011;9698;51.976;7.570;2023-06-26T09:11:40;9.00;;;5.80;;
19131;SDS011;9698;51.976;7.570;2023-06-26T09:14:07;8.73;;;5.03;;
19131;SDS011;9698;51.976;7.570;2023-06-26T09:16:40;9.43;;;5.07;;
19131;SDS011;9698;51.976;7.570;2023-06-26T09:19:09;12.00;;;5.73;;
19131;SDS011;9698;51.976;7.570;2023-06-26T09:21:38;10.80;;;4.87;;
19131;SDS011;9698;51.976;7.570;2023-06-26T09:24:07;9.30;;;4.80;;
19131;SDS011;9698;51.976;7.570;2023-06-26T09:26:36;7.30;;;5.03;;
19131;SDS011;9698;51.976;7.570;2023-06-26T09:29:05;7.57;;;4.70;;
19131;SDS011;9698;51.976;7.570;2023-06-26T09:31:35;8.23;;;4.83;;
19131;SDS011;9698;51.976;7.570;2023-06-26T09:34:08;10.97;;;4.73;;
19131;SDS011;9698;51.976;7.570;2023-06-26T09:36:37;10.27;;;4.77;;
19131;SDS011;9698;51.976;7.570;2023-06-26T09:39:08;7.03;;;4.33;;
19131;SDS011;9698;51.976;7.570;2023-06-26T09:41:37;6.67;;;4.43;;
19131;SDS011;9698;51.976;7.570;2023-06-26T09:44:06;7.63;;;4.73;;
19131;SDS011;9698;51.976;7.570;2023-06-26T09:46:37;8.27;;;4.57;;
19131;SDS011;9698;51.976;7.570;2023-06-26T09:49:06;7.03;;;4.00;;
19131;SDS011;9698;51.976;7.570;2023-06-26T09:51:35;6.73;;;3.93;;
19131;SDS011;9698;51.976;7.570;2023-06-26T09:54:04;5.57;;;4.10;;
19131;SDS011;9698;51.976;7.570;2023-06-26T09:56:33;10.03;;;4.50;;
19131;SDS011;9698;51.976;7.570;2023-06-26T09:59:03;6.83;;;3.83;;
19131;SDS011;9698;51.976;7.570;2023-06-26T10:01:32;8.00;;;4.27;;
19131;SDS011;9698;51.976;7.570;2023-06-26T10:04:08;5.50;;;3.77;;
19131;SDS011;9698;51.976;7.570;2023-06-26T10:06:36;7.03;;;3.70;;
19131;SDS011;9698;51.976;7.570;2023-06-26T10:09:08;5.20;;;3.77;;
19131;SDS011;9698;51.976;7.570;2023-06-26T10:11:39;7.37;;;3.60;;
19131;SDS011;9698;51.976;7.570;2023-06-26T10:14:22;6.80;;;3.73;;
19131;SDS011;9698;51.976;7.570;2023-06-26T10:17:09;7.03;;;3.67;;
19131;SDS011;9698;51.976;7.570;2023-06-26T10:19:40;6.40;;;3.47;;
19131;SDS011;9698;51.976;7.570;2023-06-26T10:22:11;6.00;;;3.27;;
19131;SDS011;9698;51.976;7.570;2023-06-26T10:24:41;5.87;;;3.80;;
19131;SDS011;9698;51.976;7.570;2023-06-26T10:27:14;6.93;;;3.67;;
19131;SDS011;9698;51.976;7.570;2023-06-26T10:29:44;4.43;;;3.60;;
19131;SDS011;9698;51.976;7.570;2023-06-26T10:32:14;5.83;;;3.70;;
19131;SDS011;9698;51.976;7.570;2023-06-26T10:34:43;3.63;;;3.00;;
19131;SDS011;9698;51.976;7.570;2023-06-26T10:37:11;4.63;;;2.90;;
19131;SDS011;9698;51.976;7.570;2023-06-26T10:39:51;3.10;;;2.63;;
19131;SDS011;9698;51.976;7.570;2023-06-26T10:42:28;7.40;;;3.10;;
19131;SDS011;9698;51.976;7.570;2023-06-26T10:45:09;4.03;;;2.97;;
19131;SDS011;9698;51.976;7.570;2023-06-26T10:47:40;4.47;;;2.93;;
19131;SDS011;9698;51.976;7.570;2023-06-26T10:50:19;5.67;;;3.10;;
19131;SDS011;9698;51.976;7.570;2023-06-26T10:53:13;5.13;;;3.20;;
19131;SDS011;9698;51.976;7.570;2023-06-26T10:55:54;5.77;;;3.27;;
19131;SDS011;9698;51.976;7.570;2023-06-26T10:58:32;3.20;;;2.87;;
19131;SDS011;9698;51.976;7.570;2023-06-26T11:01:20;4.37;;;3.00;;
19131;SDS011;9698;51.976;7.570;2023-06-26T11:04:00;4.10;;;3.30;;
19131;SDS011;9698;51.976;7.570;2023-06-26T11:06:31;3.53;;;2.93;;
19131;SDS011;9698;51.976;7.570;2023-06-26T11:09:01;5.03;;;3.43;;
19131;SDS011;9698;51.976;7.570;2023-06-26T11:14:33;4.87;;;2.73;;
19131;SDS011;9698;51.976;7.570;2023-06-26T11:17:05;3.57;;;3.17;;
19131;SDS011;9698;51.976;7.570;2023-06-26T11:19:33;3.43;;;3.00;;
19131;SDS011;9698;51.976;7.570;2023-06-26T11:22:02;4.47;;;3.10;;
19131;SDS011;9698;51.976;7.570;2023-06-26T11:24:32;3.33;;;2.80;;
19131;SDS011;9698;51.976;7.570;2023-06-26T11:27:01;4.80;;;3.03;;
19131;SDS011;9698;51.976;7.570;2023-06-26T11:29:31;3.77;;;2.90;;
19131;SDS011;9698;51.976;7.570;2023-06-26T11:32:00;5.53;;;3.20;;
19131;SDS011;9698;51.976;7.570;2023-06-26T11:34:32;4.97;;;2.80;;
19131;SDS011;9698;51.976;7.570;2023-06-26T11:37:01;5.03;;;2.80;;
19131;SDS011;9698;51.976;7.570;2023-06-26T11:39:29;7.23;;;3.13;;
19131;SDS011;9698;51.976;7.570;2023-06-26T11:41:58;3.87;;;3.17;;
19131;SDS011;9698;51.976;7.570;2023-06-26T11:44:29;3.60;;;2.87;;
19131;SDS011;9698;51.976;7.570;2023-06-26T11:46:58;4.20;;;2.60;;
19131;SDS011;9698;51.976;7.570;2023-06-26T11:49:26;3.20;;;2.87;;
19131;SDS011;9698;51.976;7.570;2023-06-26T11:51:56;6.13;;;2.90;;
19131;SDS011;9698;51.976;7.570;2023-06-26T11:54:25;3.53;;;3.03;;
19131;SDS011;9698;51.976;7.570;2023-06-26T11:56:55;4.47;;;3.13;;
19131;SDS011;9698;51.976;7.570;2023-06-26T11:59:23;5.23;;;3.23;;
19131;SDS011;9698;51.976;7.570;2023-06-26T12:01:58;4.10;;;3.20;;
19131;SDS011;9698;51.976;7.570;2023-06-26T12:04:26;3.93;;;3.10;;
19131;SDS011;9698;51.976;7.570;2023-06-26T12:06:55;3.97;;;2.80;;
19131;SDS011;9698;51.976;7.570;2023-06-26T12:09:23;5.87;;;3.10;;
19131;SDS011;9698;51.976;7.570;2023-06-26T12:11:53;3.30;;;2.80;;
19131;SDS011;9698;51.976;7.570;2023-06-26T12:14:23;5.00;;;2.90;;
19131;SDS011;9698;51.976;7.570;2023-06-26T12:16:54;4.63;;;3.03;;
19131;SDS011;9698;51.976;7.570;2023-06-26T12:19:24;4.80;;;2.87;;
19131;SDS011;9698;51.976;7.570;2023-06-26T12:21:53;4.70;;;2.63;;
19131;SDS011;9698;51.976;7.570;2023-06-26T12:24:22;4.47;;;2.80;;
19131;SDS011;9698;51.976;7.570;2023-06-26T12:26:52;6.40;;;2.40;;
19131;SDS011;9698;51.976;7.570;2023-06-26T12:29:30;2.93;;;2.30;;
19131;SDS011;9698;51.976;7.570;2023-06-26T12:31:59;3.07;;;2.37;;
19131;SDS011;9698;51.976;7.570;2023-06-26T12:34:30;4.10;;;2.13;;
19131;SDS011;9698;51.976;7.570;2023-06-26T12:37:00;3.17;;;2.20;;
19131;SDS011;9698;51.976;7.570;2023-06-26T12:39:30;5.13;;;2.07;;
19131;SDS011;9698;51.976;7.570;2023-06-26T12:42:13;3.07;;;2.20;;
19131;SDS011;9698;51.976;7.570;2023-06-26T12:44:42;4.60;;;2.23;;
19131;SDS011;9698;51.976;7.570;2023-06-26T12:47:10;3.90;;;2.00;;
19131;SDS011;9698;51.976;7.570;2023-06-26T12:49:41;2.27;;;1.90;;
19131;SDS011;9698;51.976;7.570;2023-06-26T12:52:10;1.97;;;1.77;;
19131;SDS011;9698;51.976;7.570;2023-06-26T12:54:40;2.80;;;1.90;;
19131;SDS011;9698;51.976;7.570;2023-06-26T12:57:09;3.17;;;1.70;;
19131;SDS011;9698;51.976;7.570;2023-06-26T12:59:40;2.90;;;1.83;;
19131;SDS011;9698;51.976;7.570;2023-06-26T13:02:08;2.73;;;1.90;;
19131;SDS011;9698;51.976;7.570;2023-06-26T13:04:38;4.50;;;1.97;;
19131;SDS011;9698;51.976;7.570;2023-06-26T13:07:06;4.20;;;1.93;;
19131;SDS011;9698;51.976;7.570;2023-06-26T13:09:35;2.50;;;2.00;;
19131;SDS011;9698;51.976;7.570;2023-06-26T13:12:05;2.70;;;1.80;;
19131;SDS011;9698;51.976;7.570;2023-06-26T13:14:35;3.63;;;1.80;;
19131;SDS011;9698;51.976;7.570;2023-06-26T13:17:05;4.47;;;1.70;;
19131;SDS011;9698;51.976;7.570;2023-06-26T13:19:35;4.50;;;1.87;;
19131;SDS011;9698;51.976;7.570;2023-06-26T13:22:04;3.90;;;1.97;;
19131;SDS011;9698;51.976;7.570;2023-06-26T13:24:33;2.80;;;1.87;;
19131;SDS011;9698;51.976;7.570;2023-06-26T13:27:00;4.17;;;1.80;;
19131;SDS011;9698;51.976;7.570;2023-06-26T13:29:29;3.93;;;1.90;;
19131;SDS011;9698;51.976;7.570;2023-06-26T13:31:57;3.57;;;2.03;;
19131;SDS011;9698;51.976;7.570;2023-06-26T13:34:27;6.80;;;1.90;;
19131;SDS011;9698;51.976;7.570;2023-06-26T13:36:55;3.47;;;1.93;;
19131;SDS011;9698;51.976;7.570;2023-06-26T13:39:25;3.53;;;1.80;;
19131;SDS011;9698;51.976;7.570;2023-06-26T13:41:53;2.83;;;1.90;;
19131;SDS011;9698;51.976;7.570;2023-06-26T13:44:21;5.10;;;2.13;;
19131;SDS011;9698;51.976;7.570;2023-06-26T13:47:05;2.10;;;1.70;;
19131;SDS011;9698;51.976;7.570;2023-06-26T13:49:36;4.97;;;1.80;;
19131;SDS011;9698;51.976;7.570;2023-06-26T13:52:05;3.70;;;2.00;;
19131;SDS011;9698;51.976;7.570;2023-06-26T13:54:34;6.17;;;2.60;;
19131;SDS011;9698;51.976;7.570;2023-06-26T13:57:03;3.27;;;1.83;;
19131;SDS011;9698;51.976;7.570;2023-06-26T13:59:32;2.03;;;1.80;;
19131;SDS011;9698;51.976;7.570;2023-06-26T14:02:03;2.23;;;1.90;;
19131;SDS011;9698;51.976;7.570;2023-06-26T14:04:32;6.03;;;2.00;;
19131;SDS011;9698;51.976;7.570;2023-06-26T14:07:00;2.57;;;2.10;;
19131;SDS011;9698;51.976;7.570;2023-06-26T14:09:29;4.90;;;2.00;;
19131;SDS011;9698;51.976;7.570;2023-06-26T14:11:58;2.53;;;1.83;;
19131;SDS011;9698;51.976;7.570;2023-06-26T14:14:26;2.43;;;1.90;;
19131;SDS011;9698;51.976;7.570;2023-06-26T14:16:54;2.23;;;1.70;;
19131;SDS011;9698;51.976;7.570;2023-06-26T14:19:22;4.23;;;1.63;;
19131;SDS011;9698;51.976;7.570;2023-06-26T14:21:50;3.17;;;1.87;;
19131;SDS011;9698;51.976;7.570;2023-06-26T14:24:19;4.37;;;1.67;;
19131;SDS011;9698;51.976;7.570;2023-06-26T14:26:47;4.07;;;1.80;;
19131;SDS011;9698;51.976;7.570;2023-06-26T14:29:15;2.60;;;1.80;;
19131;SDS011;9698;51.976;7.570;2023-06-26T14:31:43;2.90;;;1.60;;
19131;SDS011;9698;51.976;7.570;2023-06-26T14:34:12;2.63;;;1.97;;
19131;SDS011;9698;51.976;7.570;2023-06-26T14:36:40;2.53;;;1.90;;
19131;SDS011;9698;51.976;7.570;2023-06-26T14:39:09;3.23;;;1.70;;
19131;SDS011;9698;51.976;7.570;2023-06-26T14:41:38;3.10;;;1.80;;
19131;SDS011;9698;51.976;7.570;2023-06-26T14:44:06;4.60;;;1.93;;
19131;SDS011;9698;51.976;7.570;2023-06-26T14:46:36;4.00;;;1.83;;
19131;SDS011;9698;51.976;7.570;2023-06-26T14:49:04;3.37;;;1.70;;
19131;SDS011;9698;51.976;7.570;2023-06-26T14:51:32;2.33;;;1.80;;
19131;SDS011;9698;51.976;7.570;2023-06-26T14:54:00;1.80;;;1.60;;
19131;SDS011;9698;51.976;7.570;2023-06-26T14:56:29;1.83;;;1.70;;
19131;SDS011;9698;51.976;7.570;2023-06-26T14:58:57;2.97;;;1.73;;
19131;SDS011;9698;51.976;7.570;2023-06-26T15:01:24;4.23;;;1.70;;
19131;SDS011;9698;51.976;7.570;2023-06-26T15:03:52;5.13;;;1.83;;
19131;SDS011;9698;51.976;7.570;2023-06-26T15:06:20;4.60;;;1.80;;
19131;SDS011;9698;51.976;7.570;2023-06-26T15:08:48;2.30;;;1.60;;
19131;SDS011;9698;51.976;7.570;2023-06-26T15:11:17;2.97;;;1.80;;
19131;SDS011;9698;51.976;7.570;2023-06-26T15:13:45;4.93;;;1.93;;
19131;SDS011;9698;51.976;7.570;2023-06-26T15:16:13;2.10;;;1.70;;